Time;durP1;ratioP1;P1;durP2;ratioP2;P2;SDS_P1;SDS_P2;PMS_P1;PMS_P2;Temp;Humidity;BMP_temperature;BMP_pressure;BME280_temperature;BME280_humidity;BME280_pressure;Samples;Min_cycle;Max_cycle;Signal;HPM_P1;HPM_P2
2022/03/24 00:02:14;;;;;;;0.77;0.77;;;-1.40;99.90;;;;;;5112575;28;20191;-89
2022/03/24 00:04:40;;;;;;;0.75;0.75;;;-1.50;99.90;;;;;;5084564;28;20193;-90
2022/03/24 00:07:06;;;;;;;0.80;0.80;;;-1.50;99.90;;;;;;5047448;28;20320;-90
2022/03/24 00:09:32;;;;;;;0.60;0.60;;;-1.50;99.90;;;;;;5039264;28;20288;-90
2022/03/24 00:11:58;;;;;;;0.70;0.70;;;-1.50;99.90;;;;;;5040492;28;20201;-88
2022/03/24 00:14:24;;;;;;;0.60;0.60;;;-1.60;99.90;;;;;;5056242;28;20201;-87
2022/03/24 00:16:50;;;;;;;0.75;0.75;;;-1.60;99.90;;;;;;5057305;28;20217;-90
2022/03/24 00:19:19;;;;;;;0.70;0.70;;;-1.60;99.90;;;;;;5056469;28;20680;-86
2022/03/24 00:21:46;;;;;;;0.70;0.70;;;-1.60;99.90;;;;;;5055993;28;20194;-90
2022/03/24 00:24:12;;;;;;;0.73;0.73;;;-1.60;99.90;;;;;;5056010;28;20197;-90
2022/03/24 00:26:40;;;;;;;0.70;0.70;;;-1.60;99.90;;;;;;5057095;28;20220;-90
2022/03/24 00:29:09;;;;;;;0.70;0.70;;;-1.60;99.90;;;;;;5055950;28;20729;-90
2022/03/24 00:31:36;;;;;;;0.75;0.75;;;-1.70;99.90;;;;;;5055564;28;20344;-89
2022/03/24 00:34:01;;;;;;;0.70;0.70;;;-1.70;99.90;;;;;;5059563;28;20254;-89
2022/03/24 00:36:27;;;;;;;0.85;0.85;;;-1.70;99.90;;;;;;5059326;28;20201;-89
2022/03/24 00:38:55;;;;;;;1.45;1.35;;;-1.80;99.90;;;;;;5066994;28;20284;-88
2022/03/24 00:41:21;;;;;;;0.80;0.80;;;-1.70;99.90;;;;;;5039342;28;20254;-86
2022/03/24 00:43:50;;;;;;;0.70;0.70;;;-1.80;99.90;;;;;;5042537;28;20207;-87
2022/03/24 00:46:22;;;;;;;0.73;0.73;;;-1.80;99.90;;;;;;5042834;28;20259;-87
2022/03/24 00:48:52;;;;;;;1.45;1.23;;;-1.80;99.90;;;;;;5060239;28;20190;-87
2022/03/24 00:51:18;;;;;;;0.80;0.80;;;-1.90;99.90;;;;;;5042311;28;20563;-86
2022/03/24 00:53:44;;;;;;;0.70;0.70;;;-1.90;99.90;;;;;;5041864;28;20653;-88
2022/03/24 00:56:10;;;;;;;0.80;0.80;;;-1.80;99.90;;;;;;5041011;28;20201;-85
2022/03/24 00:58:37;;;;;;;2.00;1.80;;;-1.80;99.90;;;;;;5058190;28;20211;-87
2022/03/24 01:01:04;;;;;;;0.80;0.80;;;-1.90;99.90;;;;;;5078319;28;20684;-87
2022/03/24 01:03:30;;;;;;;0.80;0.80;;;-1.80;99.90;;;;;;5078254;28;20559;-86
2022/03/24 01:05:57;;;;;;;0.73;0.73;;;-1.90;99.90;;;;;;5062027;28;20209;-87
2022/03/24 01:08:23;;;;;;;0.65;0.65;;;-1.80;99.90;;;;;;5080273;28;20217;-87
2022/03/24 01:10:48;;;;;;;0.70;0.70;;;-1.90;99.90;;;;;;5082075;28;20203;-86
2022/03/24 01:13:15;;;;;;;1.13;1.02;;;-1.90;99.90;;;;;;5081947;28;20196;-87
2022/03/24 01:15:45;;;;;;;0.70;0.70;;;-1.90;99.90;;;;;;5081976;28;20200;-88
2022/03/24 01:18:14;;;;;;;0.70;0.70;;;-2.00;99.90;;;;;;5082040;28;20553;-87
2022/03/24 01:20:41;;;;;;;0.75;0.75;;;-2.00;99.90;;;;;;5081727;28;20293;-86
2022/03/24 01:23:11;;;;;;;0.80;0.80;;;-2.00;99.90;;;;;;5082368;28;20287;-86
2022/03/24 01:25:36;;;;;;;0.70;0.70;;;-2.10;99.90;;;;;;5082329;28;20238;-86
2022/03/24 01:28:03;;;;;;;0.80;0.80;;;-2.10;99.90;;;;;;5082348;28;20208;-87
2022/03/24 01:30:28;;;;;;;0.80;0.80;;;-2.10;99.90;;;;;;5081175;28;20686;-86
2022/03/24 01:32:54;;;;;;;0.70;0.70;;;-2.10;99.90;;;;;;5099651;28;20184;-86
2022/03/24 01:35:20;;;;;;;5.25;2.35;;;-2.00;99.90;;;;;;5081733;28;20196;-87
2022/03/24 01:37:45;;;;;;;0.70;0.70;;;-2.00;99.90;;;;;;5081867;28;20561;-87
2022/03/24 01:40:13;;;;;;;1.38;1.27;;;-2.00;99.90;;;;;;5081931;28;20204;-87
2022/03/24 01:42:40;;;;;;;0.80;0.80;;;-1.90;99.90;;;;;;5081316;28;20903;-86
2022/03/24 01:45:07;;;;;;;0.80;0.80;;;-1.90;99.90;;;;;;5081195;28;20659;-87
2022/03/24 01:47:34;;;;;;;0.80;0.80;;;-1.90;99.90;;;;;;5098545;28;20188;-87
2022/03/24 01:50:00;;;;;;;1.23;1.20;;;-1.90;99.90;;;;;;5081473;28;20279;-88
2022/03/24 01:52:28;;;;;;;1.02;1.02;;;-1.90;99.90;;;;;;5081675;28;20223;-86
2022/03/24 01:54:57;;;;;;;0.70;0.70;;;-1.90;99.90;;;;;;5079772;28;20248;-87
2022/03/24 01:57:25;;;;;;;0.85;0.85;;;-1.80;99.90;;;;;;5081324;28;20192;-87
2022/03/24 01:59:52;;;;;;;0.80;0.80;;;-1.70;99.90;;;;;;5082030;28;20228;-85
2022/03/24 02:02:18;;;;;;;1.13;1.10;;;-1.70;99.90;;;;;;5099272;28;20196;-87
2022/03/24 02:04:44;;;;;;;1.02;1.02;;;-1.70;99.90;;;;;;5098481;28;20202;-87
2022/03/24 02:07:11;;;;;;;1.00;1.00;;;-1.70;99.90;;;;;;5079747;28;20235;-85
2022/03/24 02:09:37;;;;;;;0.60;0.60;;;-1.80;99.90;;;;;;5081154;28;20222;-87
2022/03/24 02:12:06;;;;;;;0.70;0.70;;;-1.80;99.90;;;;;;5081408;28;20211;-86
2022/03/24 02:14:32;;;;;;;0.70;0.70;;;-1.90;99.90;;;;;;5081037;28;20204;-87
2022/03/24 02:17:02;;;;;;;0.80;0.80;;;-1.90;99.90;;;;;;5081006;28;20203;-86
2022/03/24 02:19:28;;;;;;;0.70;0.70;;;-2.00;99.90;;;;;;5081632;28;20241;-87
2022/03/24 02:21:56;;;;;;;0.65;0.65;;;-2.10;99.90;;;;;;5081092;28;20212;-86
2022/03/24 02:24:24;;;;;;;0.70;0.70;;;-2.20;99.90;;;;;;5081000;28;20231;-87
2022/03/24 02:26:51;;;;;;;0.80;0.80;;;-2.30;99.90;;;;;;5099101;28;20211;-87
2022/03/24 02:29:19;;;;;;;0.93;0.93;;;-2.30;99.90;;;;;;5081064;28;20191;-87
2022/03/24 02:31:50;;;;;;;0.80;0.80;;;-2.30;99.90;;;;;;5080581;28;20204;-86
2022/03/24 02:37:11;;;;;;;0.70;0.70;;;-2.30;99.90;;;;;;5098983;28;20294;-87
2022/03/24 02:39:43;;;;;;;4.03;1.88;;;-2.40;99.90;;;;;;5099524;28;20227;-86
2022/03/24 02:42:14;;;;;;;0.77;0.77;;;-2.40;99.90;;;;;;5098041;28;20258;-87
2022/03/24 02:45:10;;;;;;;0.80;0.80;;;-2.50;99.90;;;;;;5079966;28;20613;-84
2022/03/24 02:47:36;;;;;;;0.80;0.80;;;-2.50;99.90;;;;;;5070478;28;20697;-86
2022/03/24 02:50:03;;;;;;;0.80;0.80;;;-2.50;99.90;;;;;;5097740;28;20204;-86
2022/03/24 02:52:29;;;;;;;0.70;0.70;;;-2.60;99.90;;;;;;5096758;28;20275;-86
2022/03/24 02:54:55;;;;;;;0.80;0.80;;;-2.70;99.90;;;;;;5095255;28;20630;-86
2022/03/24 02:57:21;;;;;;;0.80;0.80;;;-2.70;99.90;;;;;;5077803;28;20202;-86
2022/03/24 02:59:47;;;;;;;0.90;0.90;;;-2.70;99.90;;;;;;5077529;28;20195;-86
2022/03/24 03:02:15;;;;;;;0.70;0.70;;;-2.70;99.90;;;;;;5076695;28;20196;-85
2022/03/24 03:04:42;;;;;;;1.02;0.95;;;-2.70;99.90;;;;;;5096007;28;20235;-85
2022/03/24 03:07:08;;;;;;;0.80;0.80;;;-2.70;99.90;;;;;;5096090;28;20223;-87
2022/03/24 03:09:36;;;;;;;1.20;0.93;;;-2.70;99.90;;;;;;5077669;28;20200;-86
2022/03/24 03:12:02;;;;;;;0.70;0.70;;;-2.70;99.90;;;;;;5077674;28;20576;-86
2022/03/24 03:14:29;;;;;;;0.85;0.85;;;-2.60;99.90;;;;;;5078120;28;20188;-86
2022/03/24 03:16:55;;;;;;;0.70;0.70;;;-2.50;99.90;;;;;;5078184;28;20204;-86
2022/03/24 03:19:22;;;;;;;1.10;1.10;;;-2.40;99.90;;;;;;5077218;28;20224;-86
2022/03/24 03:21:51;;;;;;;0.80;0.80;;;-2.50;99.90;;;;;;5078217;28;20601;-89
2022/03/24 03:24:22;;;;;;;0.80;0.80;;;-2.50;99.90;;;;;;5078212;28;20249;-85
2022/03/24 03:26:49;;;;;;;0.95;0.95;;;-2.60;99.90;;;;;;5077828;28;20200;-85
2022/03/24 03:29:16;;;;;;;0.80;0.80;;;-2.60;99.90;;;;;;5077130;28;20330;-86
2022/03/24 03:31:42;;;;;;;0.70;0.70;;;-2.60;99.90;;;;;;5076974;28;20199;-86
2022/03/24 03:34:08;;;;;;;0.80;0.80;;;-2.50;99.90;;;;;;5095364;28;20192;-84
2022/03/24 03:36:35;;;;;;;1.15;1.10;;;-2.40;99.90;;;;;;5094170;28;20196;-86
2022/03/24 03:39:02;;;;;;;0.88;0.88;;;-2.40;99.90;;;;;;5077887;28;20195;-87
2022/03/24 03:41:28;;;;;;;0.85;0.85;;;-2.50;99.90;;;;;;5077696;28;20212;-90
2022/03/24 03:43:55;;;;;;;0.90;0.90;;;-2.50;99.90;;;;;;5079368;28;20192;-88
2022/03/24 03:46:22;;;;;;;1.58;1.27;;;-2.50;99.90;;;;;;5077067;28;20257;-89
2022/03/24 03:48:48;;;;;;;3.40;1.50;;;-2.50;99.90;;;;;;5095198;28;20185;-87
2022/03/24 03:51:14;;;;;;;0.80;0.80;;;-2.60;99.90;;;;;;5076609;28;20569;-86
2022/03/24 03:53:40;;;;;;;0.90;0.90;;;-2.70;99.90;;;;;;5075557;28;20200;-86
2022/03/24 03:56:07;;;;;;;2.00;1.45;;;-2.70;99.90;;;;;;5075828;28;20229;-86
2022/03/24 03:58:35;;;;;;;1.38;1.23;;;-2.70;99.90;;;;;;5075431;28;20200;-86
2022/03/24 04:01:07;;;;;;;1.45;1.35;;;-2.70;99.90;;;;;;5094472;28;20188;-85
2022/03/24 04:03:35;;;;;;;0.77;0.77;;;-2.70;99.90;;;;;;5086155;28;20755;-84
2022/03/24 04:06:06;;;;;;;0.80;0.80;;;-2.70;99.90;;;;;;5076221;28;20595;-86
2022/03/24 04:08:35;;;;;;;0.80;0.80;;;-2.70;99.90;;;;;;5076471;28;20255;-84
2022/03/24 04:11:01;;;;;;;0.70;0.70;;;-2.80;99.90;;;;;;5076653;28;20188;-85
2022/03/24 04:13:28;;;;;;;0.70;0.70;;;-2.80;99.90;;;;;;5075860;28;20249;-85
2022/03/24 04:15:54;;;;;;;0.80;0.80;;;-2.80;99.90;;;;;;5076531;28;20200;-85
2022/03/24 04:18:22;;;;;;;0.90;0.85;;;-2.80;99.90;;;;;;5075918;28;20257;-84
2022/03/24 04:20:48;;;;;;;0.70;0.70;;;-2.90;99.90;;;;;;5094735;28;20191;-85
2022/03/24 04:23:14;;;;;;;0.73;0.73;;;-2.90;99.90;;;;;;5094675;28;20588;-84
2022/03/24 04:25:40;;;;;;;0.85;0.85;;;-2.90;99.90;;;;;;5077048;28;20643;-85
2022/03/24 04:28:07;;;;;;;0.80;0.80;;;-2.80;99.90;;;;;;5076869;28;20275;-86
2022/03/24 04:30:34;;;;;;;0.80;0.80;;;-2.80;99.90;;;;;;5075056;28;20184;-85
2022/03/24 04:33:00;;;;;;;0.70;0.70;;;-2.80;99.90;;;;;;5075921;28;20196;-85
2022/03/24 04:35:27;;;;;;;0.77;0.77;;;-2.90;99.90;;;;;;5076129;28;20188;-85
2022/03/24 04:37:53;;;;;;;1.30;1.20;;;-2.90;99.90;;;;;;5076050;28;20666;-85
2022/03/24 04:40:20;;;;;;;0.90;0.90;;;-2.90;99.90;;;;;;5076448;28;20204;-85
2022/03/24 04:42:52;;;;;;;0.80;0.80;;;-2.90;99.90;;;;;;5076123;28;20196;-84
2022/03/24 04:45:18;;;;;;;0.90;0.90;;;-2.90;99.90;;;;;;5074483;28;20199;-82
2022/03/24 04:47:45;;;;;;;0.90;0.90;;;-2.70;99.90;;;;;;5075466;28;20257;-83
2022/03/24 04:50:12;;;;;;;0.80;0.80;;;-2.60;99.90;;;;;;5074893;28;20662;-82
2022/03/24 04:52:38;;;;;;;0.70;0.70;;;-2.70;99.90;;;;;;5074747;28;20659;-84
2022/03/24 04:55:04;;;;;;;0.90;0.90;;;-2.70;99.90;;;;;;5074865;28;20224;-84
2022/03/24 04:57:30;;;;;;;0.75;0.75;;;-2.70;99.90;;;;;;5074859;28;20199;-83
2022/03/24 04:59:59;;;;;;;1.00;1.00;;;-2.70;99.90;;;;;;5075099;28;20200;-83
2022/03/24 05:02:26;;;;;;;1.25;1.17;;;-2.70;99.90;;;;;;5092545;28;20613;-83
2022/03/24 05:04:54;;;;;;;0.80;0.80;;;-2.80;99.90;;;;;;5071482;28;20204;-84
2022/03/24 05:07:20;;;;;;;0.80;0.80;;;-2.70;99.90;;;;;;5054394;28;20691;-83
2022/03/24 05:09:46;;;;;;;0.90;0.90;;;-2.70;99.90;;;;;;5072154;28;20653;-84
2022/03/24 05:12:12;;;;;;;0.80;0.80;;;-2.60;99.90;;;;;;5055429;28;20201;-84
2022/03/24 05:14:38;;;;;;;1.27;1.20;;;-2.60;99.90;;;;;;5086979;28;20188;-83
2022/03/24 05:17:05;;;;;;;3.45;1.55;;;-2.40;99.90;;;;;;5075826;28;20196;-84
2022/03/24 05:19:31;;;;;;;0.80;0.80;;;-2.30;99.90;;;;;;5093464;28;20543;-84
2022/03/24 05:21:57;;;;;;;0.80;0.80;;;-2.20;99.90;;;;;;5075892;28;20204;-84
2022/03/24 05:24:23;;;;;;;4.40;1.98;;;-2.20;99.90;;;;;;5074521;28;20249;-84
2022/03/24 05:26:49;;;;;;;0.88;0.88;;;-2.20;99.90;;;;;;5074898;28;20212;-84
2022/03/24 05:29:14;;;;;;;0.70;0.70;;;-2.10;99.90;;;;;;5076992;28;20203;-84
2022/03/24 05:31:40;;;;;;;0.70;0.70;;;-2.10;99.90;;;;;;5078142;28;20196;-83
2022/03/24 05:34:06;;;;;;;0.70;0.70;;;-1.90;99.90;;;;;;5078724;28;20291;-84
2022/03/24 05:36:32;;;;;;;0.60;0.60;;;-1.90;99.90;;;;;;5096734;28;20206;-84
2022/03/24 05:38:58;;;;;;;0.80;0.80;;;-1.80;99.90;;;;;;5079282;28;20215;-84
2022/03/24 05:41:24;;;;;;;0.90;0.90;;;-1.80;99.90;;;;;;5096355;28;20204;-84
2022/03/24 05:44:02;;;;;;;0.70;0.70;;;-1.80;99.90;;;;;;5096919;28;20188;-83
2022/03/24 05:46:41;;;;;;;0.82;0.82;;;-1.70;99.90;;;;;;5078494;28;20207;-83
2022/03/24 05:49:08;;;;;;;1.00;1.00;;;-1.70;99.90;;;;;;5078297;28;20206;-85
2022/03/24 05:51:34;;;;;;;0.90;0.90;;;-1.60;99.90;;;;;;5077394;28;20279;-83
2022/03/24 05:54:01;;;;;;;0.73;0.73;;;-1.50;99.90;;;;;;5077721;28;20667;-84
2022/03/24 05:56:27;;;;;;;0.93;0.93;;;-1.50;99.90;;;;;;5077445;28;20192;-83
2022/03/24 05:58:52;;;;;;;1.00;1.00;;;-1.40;99.90;;;;;;5077533;28;20196;-85
2022/03/24 06:01:20;;;;;;;0.90;0.88;;;-1.30;99.90;;;;;;5076396;28;20208;-84
2022/03/24 06:03:49;;;;;;;0.80;0.80;;;-1.20;99.90;;;;;;5095788;28;20223;-83
2022/03/24 06:06:15;;;;;;;1.00;1.00;;;-1.20;99.90;;;;;;5095499;28;20212;-87
2022/03/24 06:08:44;;;;;;;0.77;0.77;;;-1.10;99.90;;;;;;5077859;28;20207;-85
2022/03/24 06:11:13;;;;;;;0.65;0.65;;;-0.90;99.90;;;;;;5095551;28;20196;-84
2022/03/24 06:13:42;;;;;;;0.70;0.70;;;-0.80;99.90;;;;;;5077054;28;20200;-85
2022/03/24 06:16:09;;;;;;;1.00;1.00;;;-0.70;99.90;;;;;;5077176;28;20211;-84
2022/03/24 06:18:36;;;;;;;0.90;0.90;;;-0.60;99.90;;;;;;5077131;28;20223;-85
2022/03/24 06:21:04;;;;;;;0.80;0.80;;;-0.50;99.90;;;;;;5077210;28;20204;-86
2022/03/24 06:23:30;;;;;;;1.05;1.02;;;-0.40;99.90;;;;;;5095411;28;20602;-87
2022/03/24 06:25:56;;;;;;;0.77;0.77;;;-0.30;99.90;;;;;;5077769;28;20295;-87
2022/03/24 06:28:27;;;;;;;0.75;0.75;;;-0.20;99.90;;;;;;5078296;28;20290;-86
2022/03/24 06:30:54;;;;;;;1.77;1.63;;;-0.10;99.90;;;;;;5095174;28;20656;-85
2022/03/24 06:33:23;;;;;;;0.70;0.70;;;0.00;99.90;;;;;;5077047;28;20188;-85
2022/03/24 06:35:49;;;;;;;1.25;1.15;;;0.10;99.90;;;;;;5076747;28;20292;-85
2022/03/24 06:38:17;;;;;;;0.77;0.77;;;0.20;99.90;;;;;;5076825;28;20291;-87
2022/03/24 06:40:44;;;;;;;0.90;0.90;;;0.30;99.90;;;;;;5076396;28;20196;-86
2022/03/24 06:43:10;;;;;;;0.70;0.70;;;0.40;99.90;;;;;;5095711;28;20192;-86
2022/03/24 06:45:36;;;;;;;0.60;0.60;;;0.50;99.90;;;;;;5077186;28;20261;-86
2022/03/24 06:48:03;;;;;;;1.00;1.00;;;0.60;99.90;;;;;;5077234;28;20204;-86
2022/03/24 06:50:29;;;;;;;0.70;0.70;;;0.70;99.90;;;;;;5076970;28;20203;-86
2022/03/24 06:52:54;;;;;;;14.20;2.17;;;0.90;99.90;;;;;;5095778;28;20263;-86
2022/03/24 06:55:20;;;;;;;0.73;0.73;;;1.00;99.90;;;;;;5077199;28;20189;-86
2022/03/24 06:57:47;;;;;;;0.73;0.73;;;1.10;99.90;;;;;;5076870;28;20245;-85
2022/03/24 07:00:15;;;;;;;0.60;0.60;;;1.20;99.90;;;;;;5076608;28;20291;-86
2022/03/24 07:02:42;;;;;;;0.70;0.70;;;1.30;99.90;;;;;;5094316;28;20569;-87
2022/03/24 07:05:08;;;;;;;0.68;0.68;;;1.40;99.90;;;;;;5076166;28;20192;-86
2022/03/24 07:07:35;;;;;;;0.70;0.70;;;1.50;99.90;;;;;;5093887;28;20679;-87
2022/03/24 07:10:03;;;;;;;0.70;0.70;;;1.60;99.90;;;;;;5076355;28;20193;-87
2022/03/24 07:12:29;;;;;;;0.63;0.63;;;1.70;99.90;;;;;;5063505;28;20228;-86
2022/03/24 07:14:55;;;;;;;0.70;0.70;;;1.80;99.90;;;;;;5036823;28;20280;-87
2022/03/24 07:17:21;;;;;;;0.80;0.80;;;1.90;99.90;;;;;;5037098;28;20236;-85
2022/03/24 07:19:47;;;;;;;0.70;0.70;;;2.00;99.90;;;;;;5036870;28;20225;-86
2022/03/24 07:22:13;;;;;;;0.80;0.80;;;2.20;99.90;;;;;;5037045;28;20676;-86
2022/03/24 07:24:40;;;;;;;0.77;0.77;;;2.20;99.90;;;;;;5040139;28;20729;-85
2022/03/24 07:27:06;;;;;;;3.83;1.08;;;2.30;99.90;;;;;;5075201;28;20208;-89
2022/03/24 07:29:32;;;;;;;0.60;0.60;;;2.50;99.90;;;;;;5077172;28;20393;-85
2022/03/24 07:32:00;;;;;;;0.70;0.70;;;2.60;99.90;;;;;;5062718;28;20192;-87
2022/03/24 07:34:26;;;;;;;0.63;0.63;;;2.80;99.90;;;;;;5073494;28;20600;-86
2022/03/24 07:36:53;;;;;;;0.77;0.77;;;3.00;99.90;;;;;;5056127;28;20231;-86
2022/03/24 07:39:21;;;;;;;0.70;0.70;;;3.00;99.90;;;;;;5056013;28;20208;-84
2022/03/24 07:41:47;;;;;;;1.00;1.00;;;3.10;99.90;;;;;;5056304;28;20232;-86
2022/03/24 07:44:12;;;;;;;0.60;0.60;;;3.30;99.90;;;;;;5056632;28;20200;-86
2022/03/24 07:46:38;;;;;;;0.63;0.63;;;3.40;99.90;;;;;;5056384;28;21278;-86
2022/03/24 07:49:04;;;;;;;0.50;0.50;;;3.50;99.90;;;;;;5074265;28;20540;-86
2022/03/24 07:51:34;;;;;;;0.70;0.70;;;3.60;99.90;;;;;;5055787;28;20229;-87
2022/03/24 07:54:04;;;;;;;0.63;0.63;;;3.80;99.90;;;;;;5073886;28;20691;-85
2022/03/24 07:56:31;;;;;;;0.65;0.65;;;3.90;99.90;;;;;;5074033;28;20196;-84
2022/03/24 07:58:58;;;;;;;1.00;1.00;;;4.10;99.90;;;;;;5073481;28;20197;-87
2022/03/24 08:01:32;;;;;;;0.80;0.80;;;4.20;99.90;;;;;;5054908;28;20571;-86
2022/03/24 08:03:59;;;;;;;0.60;0.60;;;4.40;99.90;;;;;;5072964;28;20667;-85
2022/03/24 08:06:25;;;;;;;0.70;0.70;;;4.50;99.90;;;;;;5072395;28;20726;-86
2022/03/24 08:08:51;;;;;;;0.60;0.60;;;4.70;99.90;;;;;;5055104;28;20255;-86
2022/03/24 08:11:17;;;;;;;1.00;0.93;;;4.70;99.90;;;;;;5055075;28;20192;-85
2022/03/24 08:13:43;;;;;;;0.88;0.88;;;4.70;99.90;;;;;;5054843;28;20200;-85
2022/03/24 08:16:09;;;;;;;0.90;0.90;;;4.80;99.90;;;;;;5073467;28;20193;-87
2022/03/24 08:18:37;;;;;;;0.70;0.70;;;4.90;99.90;;;;;;5056275;28;20517;-87
2022/03/24 08:21:03;;;;;;;0.70;0.70;;;5.00;99.90;;;;;;5073790;28;20203;-86
2022/03/24 08:23:28;;;;;;;0.68;0.68;;;5.20;99.90;;;;;;5073281;28;20584;-86
2022/03/24 08:25:54;;;;;;;0.63;0.63;;;5.30;99.90;;;;;;5073082;28;20205;-87
2022/03/24 08:28:20;;;;;;;0.80;0.80;;;5.40;99.90;;;;;;5055138;28;20215;-86
2022/03/24 08:30:46;;;;;;;0.60;0.60;;;5.50;99.90;;;;;;5055379;28;20193;-86
2022/03/24 08:33:12;;;;;;;0.60;0.60;;;5.70;99.90;;;;;;5055344;28;20562;-87
2022/03/24 08:35:40;;;;;;;0.80;0.80;;;5.90;99.90;;;;;;5073057;28;20272;-87
2022/03/24 08:38:07;;;;;;;1.15;1.15;;;6.00;99.90;;;;;;5073562;28;20370;-87
2022/03/24 08:40:33;;;;;;;0.68;0.68;;;6.30;99.90;;;;;;5055143;28;20200;-87
2022/03/24 08:42:59;;;;;;;0.80;0.80;;;6.50;99.90;;;;;;5055542;28;20193;-87
2022/03/24 08:45:25;;;;;;;0.70;0.70;;;6.70;99.90;;;;;;5055073;28;20683;-87
2022/03/24 08:47:57;;;;;;;0.85;0.85;;;6.80;99.90;;;;;;5055747;28;20275;-87
2022/03/24 08:50:25;;;;;;;6.57;3.00;;;6.90;99.90;;;;;;5055549;28;20193;-89
2022/03/24 08:52:51;;;;;;;0.80;0.80;;;7.00;99.90;;;;;;5055539;28;20271;-88
2022/03/24 08:55:17;;;;;;;2.10;1.40;;;6.90;99.90;;;;;;5055381;28;20624;-88
2022/03/24 08:57:51;;;;;;;0.88;0.82;;;7.10;99.90;;;;;;5055128;28;20203;-87
2022/03/24 09:00:25;;;;;;;0.85;0.85;;;7.30;99.90;;;;;;5055300;28;20207;-88
2022/03/24 09:02:56;;;;;;;1.00;1.00;;;7.50;99.90;;;;;;5055453;28;20232;-88
2022/03/24 09:05:28;;;;;;;0.60;0.60;;;7.60;99.90;;;;;;5059372;28;20204;-88
2022/03/24 09:07:57;;;;;;;0.80;0.80;;;7.50;99.90;;;;;;5074168;28;20221;-89
2022/03/24 09:10:22;;;;;;;0.80;0.80;;;7.70;99.90;;;;;;5076168;28;20200;-89
2022/03/24 09:12:49;;;;;;;0.73;0.70;;;8.00;99.90;;;;;;5076905;28;20624;-88
2022/03/24 09:15:17;;;;;;;1.30;1.20;;;8.00;99.90;;;;;;5075995;28;20246;-89
2022/03/24 09:17:43;;;;;;;0.70;0.70;;;8.10;99.90;;;;;;5067538;28;20209;-89
2022/03/24 09:20:11;;;;;;;0.93;0.93;;;8.30;99.90;;;;;;5055662;28;20560;-89
2022/03/24 09:22:44;;;;;;;0.90;0.90;;;8.50;99.90;;;;;;5050103;28;20202;-88
2022/03/24 09:25:14;;;;;;;0.77;0.77;;;8.60;99.90;;;;;;5074583;28;20647;-89
2022/03/24 09:27:41;;;;;;;0.85;0.85;;;9.00;99.90;;;;;;5075715;28;20222;-88
2022/03/24 09:30:40;;;;;;;0.60;0.60;;;9.30;99.90;;;;;;5077328;28;20277;-88
2022/03/24 09:33:09;;;;;;;6.18;1.98;;;9.40;99.90;;;;;;5076068;28;20193;-88
2022/03/24 09:35:38;;;;;;;1.40;1.30;;;9.60;99.90;;;;;;5075213;28;20192;-89
2022/03/24 09:38:15;;;;;;;1.15;1.05;;;9.40;99.90;;;;;;5075365;28;20197;-90
2022/03/24 09:40:41;;;;;;;0.75;0.75;;;9.80;99.90;;;;;;5075706;28;20195;-89
2022/03/24 09:43:07;;;;;;;0.70;0.70;;;10.00;99.90;;;;;;5075772;28;20715;-89
2022/03/24 09:45:33;;;;;;;1.85;1.15;;;10.10;99.90;;;;;;5075701;28;20196;-89
2022/03/24 09:48:00;;;;;;;3.38;1.48;;;10.40;99.90;;;;;;5075991;28;20242;-89
2022/03/24 09:50:28;;;;;;;1.83;1.20;;;10.70;99.90;;;;;;5075000;28;20250;-89
2022/03/24 09:52:56;;;;;;;0.80;0.80;;;10.60;99.90;;;;;;5075606;28;20250;-89
2022/03/24 09:55:22;;;;;;;0.90;0.90;;;10.50;99.90;;;;;;5075108;28;20289;-87
2022/03/24 09:57:48;;;;;;;3.53;1.25;;;10.60;99.90;;;;;;5075586;28;20229;-89
2022/03/24 10:00:18;;;;;;;0.90;0.90;;;10.40;99.90;;;;;;5075126;28;20569;-89
2022/03/24 10:03:09;;;;;;;0.60;0.60;;;10.50;99.90;;;;;;5075046;28;20200;-89
2022/03/24 10:05:34;;;;;;;0.60;0.60;;;10.50;99.90;;;;;;5075651;28;20559;-89
2022/03/24 10:08:06;;;;;;;1.55;1.27;;;10.80;99.90;;;;;;5094348;28;20227;-89
2022/03/24 10:10:37;;;;;;;0.68;0.63;;;11.40;99.90;;;;;;5077626;28;20218;-89
2022/03/24 10:13:04;;;;;;;0.65;0.65;;;11.90;99.90;;;;;;5077898;28;20260;-89
2022/03/24 10:15:29;;;;;;;0.60;0.60;;;12.40;99.90;;;;;;5077109;28;20215;-88
2022/03/24 10:17:58;;;;;;;1.17;1.08;;;12.70;99.90;;;;;;5077676;28;20663;-87
2022/03/24 10:20:28;;;;;;;1.35;1.25;;;12.80;99.90;;;;;;5077437;28;20551;-88
2022/03/24 10:23:00;;;;;;;1.90;0.95;;;12.80;99.90;;;;;;5077243;28;20283;-88
2022/03/24 10:25:33;;;;;;;0.95;0.80;;;12.80;99.90;;;;;;5076922;28;20757;-88
2022/03/24 10:28:12;;;;;;;0.50;0.50;;;13.30;99.90;;;;;;5077152;28;20219;-89
2022/03/24 10:30:47;;;;;;;0.73;0.73;;;13.60;99.90;;;;;;5076714;28;20568;-88
2022/03/24 10:33:33;;;;;;;2.08;1.13;;;13.60;99.90;;;;;;5076889;28;20195;-88
2022/03/24 10:36:08;;;;;;;0.77;0.77;;;13.10;99.90;;;;;;5094496;28;20212;-88
2022/03/24 10:38:36;;;;;;;1.00;0.88;;;13.20;99.90;;;;;;5076729;28;20244;-88
2022/03/24 10:41:29;;;;;;;0.50;0.50;;;13.40;99.90;;;;;;5076639;28;20659;-88
2022/03/24 10:44:04;;;;;;;0.82;0.82;;;13.10;99.90;;;;;;5073480;28;20212;-88
2022/03/24 10:46:32;;;;;;;0.90;0.90;;;12.90;99.90;;;;;;5076519;28;20261;-88
2022/03/24 10:49:13;;;;;;;0.68;0.68;;;12.90;99.90;;;;;;5076557;28;20283;-88
2022/03/24 10:51:42;;;;;;;0.82;0.77;;;13.20;99.90;;;;;;5094343;28;20192;-88
2022/03/24 10:54:28;;;;;;;1.05;0.60;;;13.00;99.90;;;;;;5076445;28;20203;-87
2022/03/24 10:57:06;;;;;;;0.90;0.90;;;13.30;99.90;;;;;;5078057;28;20192;-87
2022/03/24 10:59:38;;;;;;;1.23;1.13;;;13.50;99.90;;;;;;5077455;28;20203;-87
2022/03/24 11:02:04;;;;;;;0.80;0.80;;;13.90;99.90;;;;;;5076176;28;20196;-88
2022/03/24 11:04:32;;;;;;;1.15;1.02;;;14.00;99.90;;;;;;5072573;28;20572;-87
2022/03/24 11:06:57;;;;;;;0.73;0.73;;;13.70;99.90;;;;;;5052880;28;20631;-87
2022/03/24 11:09:30;;;;;;;0.80;0.80;;;13.80;99.90;;;;;;5052833;28;20213;-88
2022/03/24 11:12:26;;;;;;;0.50;0.50;;;14.20;99.90;;;;;;5053612;28;20813;-87
2022/03/24 11:14:54;;;;;;;0.40;0.40;;;14.40;99.90;;;;;;5051105;28;20197;-88
2022/03/24 11:17:31;;;;;;;3.60;1.05;;;14.20;99.90;;;;;;5074540;28;20200;-88
2022/03/24 11:20:22;;;;;;;7.82;1.00;;;14.00;99.90;;;;;;5090642;28;20208;-88
2022/03/24 11:23:23;;;;;;;2.65;2.05;;;14.10;99.90;;;;;;5090649;28;20189;-88
2022/03/24 11:25:54;;;;;;;1.15;0.60;;;14.40;99.90;;;;;;4976895;28;20598;-87
2022/03/24 11:28:21;;;;;;;0.50;0.50;;;14.50;99.90;;;;;;4977258;28;20222;-86
2022/03/24 11:30:47;;;;;;;0.50;0.50;;;14.70;99.90;;;;;;4993214;28;20200;-88
2022/03/24 11:33:34;;;;;;;1.15;1.05;;;14.60;99.90;;;;;;4976261;28;20288;-89
2022/03/24 11:36:00;;;;;;;1.00;0.95;;;14.80;99.90;;;;;;4976020;28;20628;-89
2022/03/24 11:38:26;;;;;;;2.22;1.25;;;14.90;99.90;;;;;;4975827;28;20293;-88
2022/03/24 11:40:52;;;;;;;0.60;0.60;;;14.90;99.90;;;;;;4976011;28;20640;-88
2022/03/24 11:43:20;;;;;;;0.68;0.68;;;14.80;99.90;;;;;;4975872;28;20254;-88
2022/03/24 11:45:49;;;;;;;0.40;0.40;;;15.00;99.90;;;;;;4976326;28;20211;-88
2022/03/24 11:48:18;;;;;;;0.43;0.43;;;15.20;99.90;;;;;;4992756;28;20196;-88
2022/03/24 11:50:52;;;;;;;0.50;0.50;;;15.20;99.90;;;;;;4976542;28;20319;-88
2022/03/24 11:53:29;;;;;;;2.03;1.23;;;15.50;99.90;;;;;;4976375;28;20203;-88
2022/03/24 11:56:01;;;;;;;1.42;0.90;;;15.20;99.90;;;;;;4993024;28;20199;-87
2022/03/24 11:58:42;;;;;;;0.60;0.60;;;15.20;99.90;;;;;;4992765;28;20648;-88
2022/03/24 12:01:19;;;;;;;3.03;1.02;;;15.20;99.90;;;;;;5058531;28;20204;-89
2022/03/24 12:03:49;;;;;;;0.47;0.47;;;15.40;99.90;;;;;;5052850;28;20683;-88
2022/03/24 12:06:16;;;;;;;1.42;0.65;;;15.30;99.90;;;;;;5063601;28;20584;-88
2022/03/24 12:09:03;;;;;;;2.60;0.75;;;15.30;99.90;;;;;;5075594;28;20228;-87
2022/03/24 12:11:33;;;;;;;2.88;0.80;;;15.30;99.90;;;;;;5076010;28;20196;-87
2022/03/24 12:14:00;;;;;;;1.15;0.90;;;15.20;99.90;;;;;;5075937;28;20192;-87
2022/03/24 12:16:27;;;;;;;0.50;0.50;;;15.20;99.40;;;;;;5075835;28;20654;-88
2022/03/24 12:18:54;;;;;;;9.43;1.58;;;15.30;99.90;;;;;;5075750;28;20199;-87
2022/03/24 12:21:25;;;;;;;0.80;0.80;;;15.80;99.90;;;;;;5075006;28;20293;-88
2022/03/24 12:24:16;;;;;;;0.75;0.57;;;16.00;98.60;;;;;;5075379;28;20216;-87
2022/03/24 12:26:56;;;;;;;1.90;1.35;;;15.70;98.90;;;;;;5073161;28;20705;-86
2022/03/24 12:29:24;;;;;;;1.20;0.98;;;15.60;98.50;;;;;;5073128;28;20284;-87
2022/03/24 12:32:10;;;;;;;1.10;1.00;;;15.70;99.60;;;;;;5079727;28;20681;-88
2022/03/24 12:34:39;;;;;;;2.28;0.90;;;15.60;98.20;;;;;;5091332;28;20192;-88
2022/03/24 12:37:06;;;;;;;0.68;0.68;;;15.60;98.50;;;;;;5078112;28;20211;-88
2022/03/24 12:39:37;;;;;;;4.32;0.98;;;15.70;97.70;;;;;;5074002;28;20188;-88
2022/03/24 12:42:14;;;;;;;0.60;0.60;;;15.60;99.40;;;;;;5074770;28;20570;-87
2022/03/24 12:44:57;;;;;;;0.77;0.70;;;15.60;99.30;;;;;;5079719;28;20615;-87
2022/03/24 12:47:32;;;;;;;0.55;0.55;;;15.60;98.90;;;;;;5092695;28;20207;-87
2022/03/24 12:49:59;;;;;;;0.50;0.50;;;15.70;98.90;;;;;;5092638;28;20203;-87
2022/03/24 12:53:00;;;;;;;3.20;1.85;;;15.70;99.00;;;;;;5092131;28;20223;-88
2022/03/24 12:55:31;;;;;;;6.75;1.20;;;15.50;98.00;;;;;;5077339;28;20685;-87
2022/03/24 12:58:16;;;;;;;0.85;0.60;;;15.30;98.90;;;;;;5069504;28;20287;-88
2022/03/24 13:00:44;;;;;;;0.90;0.90;;;15.30;99.90;;;;;;5080429;28;20199;-88
2022/03/24 13:03:12;;;;;;;0.77;0.73;;;15.20;99.00;;;;;;5066658;28;20257;-87